Time;durP1;ratioP1;P1;durP2;ratioP2;P2;SDS_P1;SDS_P2;PMS_P1;PMS_P2;Temp;Humidity;BMP_temperature;BMP_pressure;BME280_temperature;BME280_humidity;BME280_pressure;Samples;Min_cycle;Max_cycle;Signal;HPM_P1;HPM_P2
2021/09/26 00:00:23;;;;;;;0.85;0.77;;;18.90;99.90;;;;;;4975408;28;20023;-77
2021/09/26 00:02:49;;;;;;;0.22;0.22;;;18.90;99.90;;;;;;4976709;28;20070;-76
2021/09/26 00:05:36;;;;;;;0.35;0.20;;;18.90;99.90;;;;;;4975156;28;20034;-77
2021/09/26 00:08:24;;;;;;;0.25;0.17;;;18.80;99.90;;;;;;4975215;28;20030;-77
2021/09/26 00:10:49;;;;;;;0.25;0.05;;;18.80;99.90;;;;;;4975231;28;20390;-77
2021/09/26 00:13:39;;;;;;;5.47;1.10;;;18.80;99.90;;;;;;4973923;28;20027;-77
2021/09/26 00:16:06;;;;;;;0.00;0.00;;;18.80;99.90;;;;;;4974733;28;20073;-77
2021/09/26 00:18:45;;;;;;;5.15;0.68;;;18.80;99.90;;;;;;4976262;28;20034;-77
2021/09/26 00:21:13;;;;;;;0.52;0.52;;;18.90;99.90;;;;;;4975011;28;20121;-77
2021/09/26 00:23:39;;;;;;;1.23;0.50;;;18.90;99.90;;;;;;4975052;28;20118;-77
2021/09/26 00:26:05;;;;;;;1.08;0.75;;;18.90;99.90;;;;;;4974649;28;20133;-77
2021/09/26 00:28:35;;;;;;;0.17;0.17;;;18.90;99.90;;;;;;4974231;28;20037;-77
2021/09/26 00:31:09;;;;;;;0.38;0.35;;;18.90;99.90;;;;;;4974551;28;20151;-77
2021/09/26 00:33:38;;;;;;;0.68;0.38;;;18.90;99.90;;;;;;4975903;28;20398;-77
2021/09/26 00:36:07;;;;;;;2.25;0.98;;;18.90;99.90;;;;;;4974593;28;20412;-77
2021/09/26 00:38:33;;;;;;;0.88;0.88;;;18.90;99.90;;;;;;4974908;28;20035;-77
2021/09/26 00:40:59;;;;;;;1.42;0.90;;;18.90;99.90;;;;;;4974564;28;20462;-77
2021/09/26 00:43:25;;;;;;;0.00;0.00;;;18.80;99.90;;;;;;4974568;28;20509;-77
2021/09/26 00:45:53;;;;;;;0.43;0.43;;;18.80;99.90;;;;;;4975716;28;20505;-77
2021/09/26 00:48:40;;;;;;;0.10;0.10;;;18.80;99.90;;;;;;4974222;28;20110;-77
2021/09/26 00:51:12;;;;;;;1.05;1.02;;;18.70;99.90;;;;;;4974190;28;20177;-77
2021/09/26 00:53:52;;;;;;;2.70;1.95;;;18.70;99.90;;;;;;4975202;28;20102;-77
2021/09/26 00:56:19;;;;;;;0.35;0.13;;;18.70;99.90;;;;;;4973724;28;20027;-77
2021/09/26 00:58:55;;;;;;;0.40;0.40;;;18.70;99.90;;;;;;4975571;28;20058;-77
2021/09/26 01:01:27;;;;;;;0.20;0.20;;;18.70;99.90;;;;;;4974234;28;20054;-77
2021/09/26 01:03:56;;;;;;;0.98;0.98;;;18.70;99.90;;;;;;4973886;28;20501;-77
2021/09/26 01:06:46;;;;;;;1.90;0.95;;;18.70;99.90;;;;;;4974063;28;20022;-77
2021/09/26 01:09:18;;;;;;;26.58;0.93;;;18.70;99.90;;;;;;4975202;28;20031;-77
2021/09/26 01:11:51;;;;;;;3.45;0.45;;;18.70;99.90;;;;;;4972413;28;20023;-77
2021/09/26 01:14:38;;;;;;;2.15;1.27;;;18.70;99.90;;;;;;4972806;28;20038;-77
2021/09/26 01:17:23;;;;;;;1.00;0.65;;;18.80;99.90;;;;;;4973728;28;20031;-77
2021/09/26 01:20:15;;;;;;;19.98;0.70;;;18.80;99.90;;;;;;4974176;28;20026;-77
2021/09/26 01:23:00;;;;;;;3.20;1.50;;;18.70;99.90;;;;;;4973801;28;20027;-77
2021/09/26 01:25:50;;;;;;;0.20;0.20;;;18.70;99.90;;;;;;4973632;28;20058;-77
2021/09/26 01:28:32;;;;;;;0.43;0.43;;;18.70;99.90;;;;;;4973380;28;20055;-77
2021/09/26 01:31:08;;;;;;;0.20;0.20;;;18.70;99.90;;;;;;4975084;28;20031;-77
2021/09/26 01:33:55;;;;;;;1.88;1.77;;;18.70;99.90;;;;;;4973433;28;20399;-77
2021/09/26 01:36:26;;;;;;;1.25;1.15;;;18.70;99.90;;;;;;4973841;28;20056;-77
2021/09/26 01:39:03;;;;;;;0.03;0.03;;;18.80;99.90;;;;;;4974639;28;20489;-77
2021/09/26 01:41:33;;;;;;;3.75;0.40;;;18.80;99.90;;;;;;4973686;28;20027;-77
2021/09/26 01:44:01;;;;;;;0.28;0.28;;;18.80;99.90;;;;;;4973473;28;20097;-77
2021/09/26 01:46:51;;;;;;;0.57;0.15;;;18.80;99.90;;;;;;4973267;28;20497;-77
2021/09/26 01:49:30;;;;;;;0.68;0.45;;;18.80;99.90;;;;;;4973117;28;20035;-77
2021/09/26 01:51:58;;;;;;;0.17;0.15;;;18.80;99.90;;;;;;4973316;28;20034;-77
2021/09/26 01:54:25;;;;;;;0.80;0.73;;;18.80;99.90;;;;;;4973049;28;20501;-77
2021/09/26 01:56:52;;;;;;;0.43;0.43;;;18.80;99.90;;;;;;4974474;28;20049;-77
2021/09/26 01:59:21;;;;;;;0.00;0.00;;;18.80;99.90;;;;;;4973198;28;20376;-77
2021/09/26 02:01:50;;;;;;;1.27;0.77;;;18.80;99.90;;;;;;4974572;28;20081;-77
2021/09/26 02:04:19;;;;;;;20.73;1.20;;;18.80;99.90;;;;;;4973015;28;20067;-77
2021/09/26 02:06:45;;;;;;;0.10;0.05;;;18.80;99.90;;;;;;4973546;28;20022;-77
2021/09/26 02:09:12;;;;;;;0.30;0.30;;;18.80;99.90;;;;;;4972849;28;20037;-77
2021/09/26 02:11:40;;;;;;;2.75;1.13;;;18.80;99.90;;;;;;4974204;28;20033;-77
2021/09/26 02:14:20;;;;;;;0.25;0.25;;;18.80;99.90;;;;;;4971460;28;20113;-77
2021/09/26 02:17:02;;;;;;;0.28;0.25;;;18.80;99.90;;;;;;4972751;28;20096;-77
2021/09/26 02:19:28;;;;;;;0.20;0.20;;;18.70;99.90;;;;;;4972846;28;20026;-77
2021/09/26 02:22:07;;;;;;;1.85;1.50;;;18.70;99.90;;;;;;4972796;28;20026;-77
2021/09/26 02:24:38;;;;;;;0.10;0.10;;;18.70;99.90;;;;;;4973886;28;20122;-77
2021/09/26 02:27:17;;;;;;;1.40;0.85;;;18.60;99.90;;;;;;4972721;28;20042;-77
2021/09/26 02:29:44;;;;;;;3.55;0.68;;;18.60;99.90;;;;;;4972982;28;20031;-77
2021/09/26 02:32:33;;;;;;;0.08;0.08;;;18.60;99.90;;;;;;4972759;28;20061;-77
2021/09/26 02:35:00;;;;;;;0.10;0.10;;;18.60;99.90;;;;;;4972846;28;20033;-77
2021/09/26 02:37:47;;;;;;;0.65;0.65;;;18.60;99.90;;;;;;4972698;28;20035;-77
2021/09/26 02:40:14;;;;;;;1.50;0.60;;;18.60;99.90;;;;;;4972840;28;20564;-77
2021/09/26 02:43:05;;;;;;;0.22;0.22;;;18.50;99.90;;;;;;4972480;28;20031;-76
2021/09/26 02:46:04;;;;;;;0.00;0.00;;;18.50;99.90;;;;;;4972394;28;20043;-77
2021/09/26 02:48:31;;;;;;;0.75;0.75;;;18.50;99.90;;;;;;4972718;28;20033;-77
2021/09/26 02:50:57;;;;;;;0.03;0.03;;;18.50;99.90;;;;;;4972412;28;20035;-77
2021/09/26 02:53:36;;;;;;;4.10;1.45;;;18.50;99.90;;;;;;4974009;28;20487;-76
2021/09/26 02:56:04;;;;;;;0.15;0.15;;;18.50;99.90;;;;;;4972601;28;20041;-77
2021/09/26 02:58:43;;;;;;;0.38;0.28;;;18.50;99.90;;;;;;4972334;28;20027;-77
2021/09/26 03:01:09;;;;;;;10.60;2.05;;;18.50;99.90;;;;;;4972398;28;20039;-77
2021/09/26 03:03:47;;;;;;;2.15;0.43;;;18.50;99.90;;;;;;4973612;28;20030;-77
2021/09/26 03:06:13;;;;;;;2.60;1.17;;;18.50;99.90;;;;;;4972450;28;20034;-77
2021/09/26 03:08:40;;;;;;;0.65;0.65;;;18.50;99.90;;;;;;4972265;28;20031;-77
2021/09/26 03:11:05;;;;;;;0.98;0.52;;;18.40;99.90;;;;;;4972312;28;20077;-77
2021/09/26 03:13:45;;;;;;;1.35;0.08;;;18.40;99.90;;;;;;4967833;28;20110;-77
2021/09/26 03:16:11;;;;;;;0.00;0.00;;;18.40;99.90;;;;;;4971959;28;20086;-77
2021/09/26 03:18:39;;;;;;;0.17;0.17;;;18.30;99.90;;;;;;4974160;28;20118;-77
2021/09/26 03:21:15;;;;;;;1.00;0.70;;;18.30;99.90;;;;;;4976154;28;20031;-77
2021/09/26 03:23:41;;;;;;;0.05;0.05;;;18.30;99.90;;;;;;4976864;28;20383;-77
2021/09/26 03:26:07;;;;;;;0.00;0.00;;;18.30;99.90;;;;;;4977183;28;20081;-77
2021/09/26 03:28:35;;;;;;;0.70;0.32;;;18.30;99.90;;;;;;4977169;28;20027;-77
2021/09/26 03:31:04;;;;;;;0.17;0.17;;;18.30;99.90;;;;;;4976083;28;20113;-77
2021/09/26 03:33:29;;;;;;;0.28;0.20;;;18.30;99.90;;;;;;4976086;28;20022;-77
2021/09/26 03:36:16;;;;;;;7.28;0.82;;;18.20;99.90;;;;;;4977348;28;20078;-77
2021/09/26 03:39:06;;;;;;;1.10;0.98;;;18.30;99.90;;;;;;4976008;28;20117;-77
2021/09/26 03:41:35;;;;;;;0.63;0.43;;;18.20;99.90;;;;;;4975770;28;20034;-77
2021/09/26 03:44:00;;;;;;;0.55;0.52;;;18.20;99.90;;;;;;4976876;28;20438;-77
2021/09/26 03:46:26;;;;;;;0.30;0.30;;;18.20;99.90;;;;;;4977054;28;20058;-77
2021/09/26 03:48:52;;;;;;;0.47;0.32;;;18.20;99.90;;;;;;4979770;28;20034;-76
2021/09/26 03:51:18;;;;;;;3.63;1.75;;;18.20;99.90;;;;;;4977366;28;20054;-77
2021/09/26 03:53:57;;;;;;;1.95;1.67;;;18.20;99.90;;;;;;4975578;28;20086;-77
2021/09/26 03:56:28;;;;;;;1.98;1.08;;;18.30;99.90;;;;;;4975713;28;20030;-77
2021/09/26 03:59:16;;;;;;;0.45;0.32;;;18.30;99.90;;;;;;4974896;28;20030;-77
2021/09/26 04:02:09;;;;;;;0.00;0.00;;;18.20;99.90;;;;;;4975275;28;20073;-77
2021/09/26 04:04:44;;;;;;;0.00;0.00;;;18.10;99.90;;;;;;4978331;28;20026;-76
2021/09/26 04:07:09;;;;;;;0.28;0.28;;;18.10;99.90;;;;;;4979311;28;20034;-76
2021/09/26 04:09:35;;;;;;;0.10;0.10;;;18.10;99.90;;;;;;4978230;28;20498;-77
2021/09/26 04:12:01;;;;;;;0.08;0.08;;;18.00;99.90;;;;;;4978448;28;20031;-77
2021/09/26 04:14:26;;;;;;;1.65;1.20;;;18.00;99.90;;;;;;4977054;28;20474;-77
2021/09/26 04:16:52;;;;;;;0.10;0.10;;;18.00;99.90;;;;;;4976191;28;20483;-77
2021/09/26 04:19:28;;;;;;;0.00;0.00;;;17.90;99.90;;;;;;4976459;28;20030;-77
2021/09/26 04:22:07;;;;;;;1.55;0.75;;;17.80;99.90;;;;;;4974737;28;20069;-77
2021/09/26 04:24:36;;;;;;;1.13;0.85;;;17.80;99.90;;;;;;4974726;28;20030;-76
2021/09/26 04:27:15;;;;;;;0.00;0.00;;;17.70;99.90;;;;;;4975038;28;20030;-76
2021/09/26 04:29:44;;;;;;;0.77;0.77;;;17.70;99.90;;;;;;4978087;28;20083;-75
2021/09/26 04:32:10;;;;;;;0.00;0.00;;;17.80;99.90;;;;;;4977144;28;20757;-77
2021/09/26 04:34:36;;;;;;;0.00;0.00;;;17.80;99.90;;;;;;4978975;28;20029;-76
2021/09/26 04:37:03;;;;;;;0.50;0.47;;;17.80;99.90;;;;;;4979929;28;20035;-76
2021/09/26 04:39:29;;;;;;;0.00;0.00;;;17.80;99.90;;;;;;4981485;28;20035;-76
2021/09/26 04:41:55;;;;;;;0.45;0.45;;;17.80;99.90;;;;;;4980425;28;20026;-77
2021/09/26 04:44:23;;;;;;;0.98;0.52;;;17.70;99.90;;;;;;4978953;28;20039;-77
2021/09/26 04:46:49;;;;;;;0.00;0.00;;;17.70;99.90;;;;;;4974647;28;20422;-77
2021/09/26 04:49:19;;;;;;;0.95;0.90;;;17.70;99.90;;;;;;4975764;28;20023;-77
2021/09/26 04:52:06;;;;;;;0.00;0.00;;;17.70;99.90;;;;;;4970698;28;20055;-77
2021/09/26 04:54:36;;;;;;;0.17;0.17;;;17.60;99.90;;;;;;4971107;28;20031;-78
2021/09/26 04:57:02;;;;;;;0.10;0.10;;;17.60;99.90;;;;;;4971321;28;20057;-77
2021/09/26 04:59:28;;;;;;;0.00;0.00;;;17.60;99.90;;;;;;4971365;28;20066;-77
2021/09/26 05:01:54;;;;;;;0.32;0.32;;;17.60;99.90;;;;;;4956332;29;20034;-77
2021/09/26 05:04:19;;;;;;;0.10;0.10;;;17.50;99.90;;;;;;4970983;28;20031;-77
2021/09/26 05:06:58;;;;;;;0.77;0.77;;;17.40;99.90;;;;;;4956480;29;20395;-77
2021/09/26 05:09:24;;;;;;;0.10;0.10;;;17.40;99.90;;;;;;4973470;28;20035;-77
2021/09/26 05:11:49;;;;;;;0.05;0.05;;;17.40;99.90;;;;;;4957144;29;20034;-77
2021/09/26 05:14:18;;;;;;;0.95;0.80;;;17.30;99.90;;;;;;4954669;29;20031;-77
2021/09/26 05:16:47;;;;;;;0.17;0.17;;;17.40;99.90;;;;;;4954004;28;20391;-76
2021/09/26 05:19:23;;;;;;;0.52;0.52;;;17.30;99.90;;;;;;4956235;28;20023;-76
2021/09/26 05:21:51;;;;;;;0.63;0.45;;;17.40;99.90;;;;;;4973646;28;20027;-77
2021/09/26 05:24:28;;;;;;;0.55;0.55;;;17.40;99.90;;;;;;4972104;28;20051;-77
2021/09/26 05:26:54;;;;;;;0.00;0.00;;;17.40;99.90;;;;;;4957930;28;20020;-77
2021/09/26 05:29:33;;;;;;;0.25;0.25;;;17.40;99.90;;;;;;4970355;28;20032;-77
2021/09/26 05:32:15;;;;;;;4.40;1.27;;;17.40;99.90;;;;;;4973625;28;20023;-76
2021/09/26 05:34:52;;;;;;;0.30;0.30;;;17.40;99.90;;;;;;4973857;28;20069;-76
2021/09/26 05:37:20;;;;;;;0.38;0.20;;;17.40;99.90;;;;;;4973599;28;20023;-76
2021/09/26 05:39:46;;;;;;;0.17;0.10;;;17.40;99.90;;;;;;4974685;28;20454;-77
2021/09/26 05:42:12;;;;;;;0.47;0.43;;;17.40;99.90;;;;;;4974774;28;20466;-76
2021/09/26 05:44:37;;;;;;;0.00;0.00;;;17.40;99.90;;;;;;4973656;28;20062;-77
2021/09/26 05:47:07;;;;;;;0.17;0.17;;;17.30;99.90;;;;;;4974857;28;20047;-76
2021/09/26 05:49:43;;;;;;;0.05;0.05;;;17.30;99.90;;;;;;4975760;28;20121;-76
2021/09/26 05:52:09;;;;;;;0.55;0.55;;;17.30;99.90;;;;;;4974648;28;20022;-77
2021/09/26 05:54:46;;;;;;;0.00;0.00;;;17.30;99.90;;;;;;4978196;28;20031;-76
2021/09/26 05:57:12;;;;;;;0.00;0.00;;;17.40;99.90;;;;;;4976372;28;20026;-77
2021/09/26 05:59:38;;;;;;;1.35;1.25;;;17.40;99.90;;;;;;4976520;28;20113;-77
2021/09/26 06:02:10;;;;;;;0.08;0.08;;;17.40;99.90;;;;;;4976404;28;20078;-76
2021/09/26 06:04:36;;;;;;;0.22;0.22;;;17.40;99.90;;;;;;4975162;28;20031;-76
2021/09/26 06:07:03;;;;;;;1.52;1.33;;;17.40;99.90;;;;;;4975085;28;20030;-78
2021/09/26 06:09:29;;;;;;;0.10;0.10;;;17.40;99.90;;;;;;4972855;28;20037;-77
2021/09/26 06:12:05;;;;;;;16.65;2.25;;;17.40;99.90;;;;;;4974555;28;20093;-77
2021/09/26 06:14:33;;;;;;;0.28;0.28;;;17.40;99.90;;;;;;4973033;28;20516;-77
2021/09/26 06:16:59;;;;;;;0.00;0.00;;;17.40;99.90;;;;;;4971928;28;20026;-77
2021/09/26 06:19:24;;;;;;;0.05;0.05;;;17.50;99.90;;;;;;4974042;28;20027;-76
2021/09/26 06:21:50;;;;;;;0.50;0.30;;;17.50;99.90;;;;;;4974103;28;20099;-77
2021/09/26 06:24:16;;;;;;;2.28;2.08;;;17.60;99.90;;;;;;4973878;28;20043;-77
2021/09/26 06:26:42;;;;;;;0.00;0.00;;;17.60;99.90;;;;;;4973194;28;20023;-77
2021/09/26 06:29:08;;;;;;;0.22;0.22;;;17.60;99.90;;;;;;4973413;28;20027;-77
2021/09/26 06:31:34;;;;;;;0.00;0.00;;;17.60;99.90;;;;;;4974067;28;20050;-77
2021/09/26 06:34:00;;;;;;;0.40;0.40;;;17.60;99.90;;;;;;4972595;28;20073;-77
2021/09/26 06:36:26;;;;;;;0.10;0.10;;;17.60;99.90;;;;;;4972121;28;20126;-76
2021/09/26 06:38:52;;;;;;;0.38;0.35;;;17.60;99.90;;;;;;4972779;28;20031;-77
2021/09/26 06:41:18;;;;;;;0.10;0.10;;;17.70;99.90;;;;;;4972566;28;20102;-77
2021/09/26 06:43:55;;;;;;;0.98;0.70;;;17.70;99.90;;;;;;4974169;28;20030;-77
2021/09/26 06:46:32;;;;;;;0.32;0.25;;;17.70;99.90;;;;;;4972348;28;20082;-77
2021/09/26 06:49:01;;;;;;;0.00;0.00;;;17.80;99.90;;;;;;4972751;28;20027;-77
2021/09/26 06:51:31;;;;;;;0.10;0.00;;;17.80;99.90;;;;;;4972355;28;20077;-77
2021/09/26 06:54:08;;;;;;;0.55;0.43;;;17.90;99.90;;;;;;4978233;28;20026;-77
2021/09/26 06:56:34;;;;;;;0.17;0.17;;;18.00;99.90;;;;;;4980188;28;20030;-77
2021/09/26 06:59:00;;;;;;;0.00;0.00;;;18.00;99.90;;;;;;4980172;28;20406;-77
2021/09/26 07:01:32;;;;;;;0.93;0.17;;;18.10;99.90;;;;;;4978917;28;20023;-77
2021/09/26 07:04:20;;;;;;;0.00;0.00;;;18.10;99.90;;;;;;4978611;28;20054;-77
2021/09/26 07:06:56;;;;;;;0.30;0.30;;;18.20;99.90;;;;;;4979058;28;20026;-77
2021/09/26 07:09:22;;;;;;;0.00;0.00;;;18.20;99.90;;;;;;4980248;28;20027;-77
2021/09/26 07:11:54;;;;;;;0.93;0.50;;;18.30;99.90;;;;;;4978450;28;20505;-78
2021/09/26 07:14:22;;;;;;;0.30;0.28;;;18.40;99.90;;;;;;4979084;28;20101;-77
2021/09/26 07:17:00;;;;;;;0.00;0.00;;;18.40;99.90;;;;;;4957459;28;20086;-77
2021/09/26 07:19:26;;;;;;;0.00;0.00;;;18.40;99.90;;;;;;4975421;28;20027;-77
2021/09/26 07:21:52;;;;;;;2.22;0.40;;;18.40;99.90;;;;;;4975643;28;20057;-77
2021/09/26 07:24:18;;;;;;;0.10;0.10;;;18.40;99.90;;;;;;4960163;28;20027;-77
2021/09/26 07:26:54;;;;;;;0.00;0.00;;;18.40;99.90;;;;;;4960708;28;20023;-77
2021/09/26 07:29:30;;;;;;;0.22;0.20;;;18.40;99.90;;;;;;4958685;28;20497;-77
2021/09/26 07:31:59;;;;;;;0.40;0.40;;;18.50;99.90;;;;;;4960481;28;20023;-77
2021/09/26 07:34:25;;;;;;;2.20;1.17;;;19.30;99.90;;;;;;4975418;28;20031;-76
2021/09/26 07:36:50;;;;;;;0.10;0.10;;;19.30;99.90;;;;;;4960519;28;20489;-77
2021/09/26 07:39:16;;;;;;;0.10;0.10;;;19.40;99.90;;;;;;4975038;28;20464;-76
2021/09/26 07:41:54;;;;;;;0.20;0.20;;;19.20;99.90;;;;;;4975535;28;20541;-77
2021/09/26 07:44:19;;;;;;;0.00;0.00;;;19.20;99.90;;;;;;4975424;28;20039;-77
2021/09/26 07:46:55;;;;;;;0.45;0.45;;;19.20;99.90;;;;;;4975109;28;20394;-77
2021/09/26 07:49:23;;;;;;;0.00;0.00;;;19.30;99.90;;;;;;4959057;28;20051;-77
2021/09/26 07:52:02;;;;;;;0.25;0.25;;;19.20;99.90;;;;;;4978464;28;20077;-77
2021/09/26 07:54:39;;;;;;;8.52;0.73;;;19.20;99.90;;;;;;4978291;28;20577;-77
2021/09/26 07:57:16;;;;;;;0.30;0.13;;;19.30;99.90;;;;;;4978226;28;20034;-77
2021/09/26 07:59:42;;;;;;;13.90;0.60;;;19.40;99.90;;;;;;4978469;28;20031;-77
2021/09/26 08:02:08;;;;;;;10.82;0.50;;;20.50;99.90;;;;;;4978195;28;20034;-77
2021/09/26 08:04:34;;;;;;;0.45;0.22;;;21.60;99.90;;;;;;4978092;28;20510;-77
2021/09/26 08:07:03;;;;;;;0.00;0.00;;;21.60;99.90;;;;;;4975274;28;20027;-76
2021/09/26 08:09:29;;;;;;;0.00;0.00;;;20.60;99.90;;;;;;4975418;28;20113;-77
2021/09/26 08:11:54;;;;;;;0.00;0.00;;;19.90;99.90;;;;;;4975442;28;20114;-77
2021/09/26 08:14:20;;;;;;;0.10;0.05;;;19.70;99.90;;;;;;4974855;28;20046;-77
2021/09/26 08:16:46;;;;;;;0.00;0.00;;;19.50;99.90;;;;;;4973072;28;20031;-76
2021/09/26 08:19:11;;;;;;;0.20;0.20;;;21.50;99.90;;;;;;4975130;28;20074;-77
2021/09/26 08:21:37;;;;;;;2.28;0.32;;;22.50;99.90;;;;;;4975230;28;20031;-77
2021/09/26 08:24:06;;;;;;;1.02;0.95;;;22.70;99.90;;;;;;4974703;28;20436;-76
2021/09/26 08:26:45;;;;;;;5.57;1.23;;;23.20;99.90;;;;;;4975238;28;20490;-77
2021/09/26 08:29:11;;;;;;;0.68;0.17;;;23.60;99.90;;;;;;4974854;28;20027;-77
2021/09/26 08:31:47;;;;;;;1.02;1.00;;;23.70;99.90;;;;;;4974662;28;20105;-77
2021/09/26 08:34:13;;;;;;;0.73;0.40;;;23.10;99.90;;;;;;4976092;28;20071;-77
2021/09/26 08:36:41;;;;;;;1.25;0.80;;;21.60;99.90;;;;;;4974678;28;20019;-76
2021/09/26 08:39:09;;;;;;;0.20;0.20;;;20.70;99.90;;;;;;4974637;28;20045;-76
2021/09/26 08:41:49;;;;;;;0.10;0.10;;;20.30;99.90;;;;;;4974495;28;20062;-76
2021/09/26 08:44:30;;;;;;;0.00;0.00;;;20.10;99.90;;;;;;4974586;28;20130;-76
2021/09/26 08:47:00;;;;;;;0.98;0.50;;;20.50;99.90;;;;;;4973979;28;20047;-77
2021/09/26 08:49:39;;;;;;;0.00;0.00;;;20.40;99.90;;;;;;4974600;28;20037;-77
2021/09/26 08:52:05;;;;;;;0.13;0.13;;;20.20;99.90;;;;;;4971073;28;20016;-76
2021/09/26 08:54:31;;;;;;;24.52;3.20;;;21.50;99.90;;;;;;4955264;29;20491;-77
2021/09/26 08:56:58;;;;;;;0.00;0.00;;;24.20;99.90;;;;;;4971424;28;20030;-77
2021/09/26 08:59:24;;;;;;;2.25;0.65;;;25.40;99.90;;;;;;4971323;28;20038;-77
2021/09/26 09:01:49;;;;;;;1.20;0.45;;;25.90;99.90;;;;;;4954685;29;20410;-76
2021/09/26 09:04:15;;;;;;;0.28;0.28;;;24.50;99.90;;;;;;4956136;29;20031;-76
2021/09/26 09:06:46;;;;;;;0.30;0.28;;;23.90;99.90;;;;;;4971205;28;20082;-77
2021/09/26 09:09:27;;;;;;;0.93;0.28;;;24.40;99.90;;;;;;4970924;28;20050;-76
2021/09/26 09:12:15;;;;;;;5.32;0.80;;;25.10;99.90;;;;;;4970047;28;20504;-76
2021/09/26 09:14:58;;;;;;;1.75;0.80;;;24.30;99.90;;;;;;4954846;29;20028;-76
2021/09/26 09:17:31;;;;;;;3.10;0.82;;;23.50;99.90;;;;;;4954006;29;20026;-75
2021/09/26 09:20:23;;;;;;;5.97;0.47;;;23.30;99.90;;;;;;4954528;29;20050;-75
2021/09/26 09:22:56;;;;;;;2.90;0.32;;;23.70;99.90;;;;;;4970955;28;20023;-76
2021/09/26 09:25:41;;;;;;;5.28;0.65;;;24.90;99.90;;;;;;4970396;28;20795;-76
2021/09/26 09:28:20;;;;;;;0.55;0.45;;;25.10;99.90;;;;;;4954669;29;20058;-75
2021/09/26 09:30:49;;;;;;;7.47;0.80;;;25.60;99.90;;;;;;4954636;29;20035;-76
2021/09/26 09:33:18;;;;;;;0.32;0.32;;;26.90;99.90;;;;;;4973681;28;20023;-76
2021/09/26 09:35:55;;;;;;;3.63;0.35;;;26.90;99.90;;;;;;4974029;28;20027;-76
2021/09/26 09:38:41;;;;;;;0.10;0.10;;;26.30;99.90;;;;;;4973160;28;20034;-76
2021/09/26 09:41:07;;;;;;;0.20;0.20;;;25.10;99.90;;;;;;4968973;28;20043;-76
2021/09/26 09:43:47;;;;;;;0.65;0.40;;;23.00;99.90;;;;;;4975083;28;20105;-75
2021/09/26 09:46:14;;;;;;;0.38;0.13;;;22.00;99.90;;;;;;4973305;28;20051;-76
2021/09/26 09:49:06;;;;;;;0.20;0.20;;;21.80;99.90;;;;;;4973413;28;20019;-76
2021/09/26 09:51:34;;;;;;;0.45;0.20;;;22.20;99.90;;;;;;4973221;28;20030;-76
2021/09/26 09:54:13;;;;;;;0.20;0.20;;;22.40;99.90;;;;;;4973511;28;20025;-76
2021/09/26 09:56:49;;;;;;;1.25;0.70;;;22.00;99.90;;;;;;4973028;28;20026;-76
2021/09/26 09:59:47;;;;;;;0.57;0.57;;;21.90;99.90;;;;;;4974473;28;20102;-75
2021/09/26 10:02:16;;;;;;;1.13;0.40;;;21.70;99.90;;;;;;4972981;28;20406;-76
2021/09/26 10:04:49;;;;;;;1.27;0.45;;;21.30;99.90;;;;;;4973109;28;20031;-75
2021/09/26 10:07:46;;;;;;;0.77;0.77;;;20.70;99.90;;;;;;4973526;28;20118;-75
2021/09/26 10:10:17;;;;;;;0.00;0.00;;;19.90;99.90;;;;;;4974418;28;20018;-76
2021/09/26 10:13:07;;;;;;;1.55;0.30;;;19.50;99.90;;;;;;4972216;28;20037;-75
2021/09/26 10:15:46;;;;;;;0.00;0.00;;;19.30;99.90;;;;;;4982690;28;20032;-76
2021/09/26 10:18:12;;;;;;;0.10;0.10;;;19.40;99.90;;;;;;4992038;28;20129;-75
2021/09/26 10:20:38;;;;;;;0.35;0.20;;;19.50;99.90;;;;;;4992879;28;20562;-76
2021/09/26 10:23:03;;;;;;;0.35;0.35;;;19.40;99.90;;;;;;4993819;28;20058;-75
2021/09/26 10:25:30;;;;;;;0.10;0.10;;;19.30;99.90;;;;;;4993692;28;20028;-75
2021/09/26 10:27:58;;;;;;;0.20;0.10;;;19.20;99.90;;;;;;4991666;28;20027;-75
2021/09/26 10:30:25;;;;;;;0.47;0.32;;;19.10;99.90;;;;;;4994050;28;20098;-76
2021/09/26 10:32:51;;;;;;;0.00;0.00;;;19.20;99.90;;;;;;4980921;28;20554;-76
2021/09/26 10:35:18;;;;;;;0.10;0.10;;;19.40;99.90;;;;;;4974363;28;20102;-76
2021/09/26 10:37:44;;;;;;;0.30;0.30;;;19.70;99.90;;;;;;4973187;28;20038;-75
2021/09/26 10:40:11;;;;;;;1.13;0.40;;;20.10;99.90;;;;;;4973791;28;20023;-76
2021/09/26 10:42:38;;;;;;;0.13;0.13;;;20.50;99.90;;;;;;4974365;28;20034;-76
2021/09/26 10:45:09;;;;;;;1.45;0.77;;;20.50;99.90;;;;;;4973765;28;20034;-76
2021/09/26 10:47:39;;;;;;;0.20;0.00;;;20.40;99.90;;;;;;4973693;28;20581;-76
2021/09/26 10:50:12;;;;;;;0.70;0.52;;;20.40;99.90;;;;;;4973884;28;20034;-75
2021/09/26 10:52:38;;;;;;;;;;;20.70;99.90;;;;;;4973939;28;20113;-76
2021/09/26 10:55:27;;;;;;;0.50;0.20;;;21.00;99.90;;;;;;4973698;28;19906;-76
2021/09/26 10:58:13;;;;;;;1.58;0.63;;;20.90;99.90;;;;;;4973231;28;20042;-75
2021/09/26 11:00:48;;;;;;;0.00;0.00;;;20.90;99.90;;;;;;4973973;28;20066;-76
2021/09/26 11:03:19;;;;;;;0.20;0.20;;;20.60;99.90;;;;;;4973616;28;20031;-75
2021/09/26 11:05:52;;;;;;;0.10;0.10;;;20.60;99.90;;;;;;4973729;28;20029;-75
2021/09/26 11:08:24;;;;;;;1.80;0.95;;;20.40;99.90;;;;;;4972731;28;20096;-76
2021/09/26 11:10:58;;;;;;;9.45;2.10;;;20.60;99.90;;;;;;4972109;28;20453;-75
2021/09/26 11:13:35;;;;;;;3.03;0.95;;;20.40;99.90;;;;;;4973569;28;20019;-75
2021/09/26 11:16:12;;;;;;;0.45;0.45;;;20.20;99.90;;;;;;4972354;28;20513;-75
2021/09/26 11:18:55;;;;;;;0.32;0.32;;;20.00;99.90;;;;;;4971930;28;20027;-75
2021/09/26 11:21:36;;;;;;;15.07;0.43;;;19.90;99.90;;;;;;4973848;28;20031;-76
2021/09/26 11:24:07;;;;;;;0.30;0.30;;;19.90;99.90;;;;;;4972037;28;20413;-75
2021/09/26 11:27:00;;;;;;;0.10;0.10;;;19.90;99.90;;;;;;4974864;28;20066;-75
2021/09/26 11:29:38;;;;;;;;;;;20.00;99.90;;;;;;4972899;28;20410;-75
2021/09/26 11:32:05;;;;;;;0.40;0.35;;;20.40;99.90;;;;;;4974725;28;19913;-75
2021/09/26 11:34:40;;;;;;;0.30;0.30;;;21.00;99.90;;;;;;4973644;28;20027;-75
2021/09/26 11:37:07;;;;;;;3.45;0.98;;;21.00;99.90;;;;;;4974329;28;20174;-75
2021/09/26 11:39:34;;;;;;;0.28;0.20;;;21.20;99.90;;;;;;4975354;28;20110;-75
2021/09/26 11:42:00;;;;;;;0.08;0.08;;;21.20;99.90;;;;;;4975939;28;20398;-75
2021/09/26 11:44:27;;;;;;;0.00;0.00;;;20.70;99.90;;;;;;4977751;28;20030;-75
2021/09/26 11:46:56;;;;;;;0.00;0.00;;;20.40;99.90;;;;;;4977955;28;20126;-75
2021/09/26 11:49:35;;;;;;;0.00;0.00;;;19.80;99.90;;;;;;4976274;28;20405;-75
2021/09/26 11:52:04;;;;;;;5.03;0.43;;;19.20;99.90;;;;;;4975656;28;20081;-75
2021/09/26 11:54:30;;;;;;;0.00;0.00;;;19.10;99.90;;;;;;4977033;28;20027;-75
2021/09/26 11:56:56;;;;;;;0.00;0.00;;;19.30;99.90;;;;;;4976562;28;20568;-75
2021/09/26 11:59:22;;;;;;;0.00;0.00;;;19.60;99.90;;;;;;4992916;28;20383;-75
2021/09/26 12:01:49;;;;;;;0.47;0.13;;;20.00;99.90;;;;;;4996019;28;20026;-76
2021/09/26 12:04:21;;;;;;;0.00;0.00;;;20.40;99.90;;;;;;4992312;28;20026;-76
2021/09/26 12:06:51;;;;;;;19.52;0.43;;;20.20;99.90;;;;;;4975680;28;20019;-75
2021/09/26 12:09:37;;;;;;;0.00;0.00;;;20.20;99.90;;;;;;4975276;28;20126;-75
2021/09/26 12:12:10;;;;;;;0.00;0.00;;;20.30;99.90;;;;;;4964404;28;20037;-75
2021/09/26 12:14:41;;;;;;;14.10;0.30;;;20.50;99.90;;;;;;4975066;28;20061;-75
2021/09/26 12:17:11;;;;;;;1.30;0.25;;;20.80;99.90;;;;;;4975150;28;20089;-75
2021/09/26 12:19:37;;;;;;;0.17;0.17;;;21.00;99.90;;;;;;4973492;28;20038;-76
2021/09/26 12:22:02;;;;;;;0.13;0.13;;;20.80;99.90;;;;;;4975028;28;20030;-75
2021/09/26 12:24:36;;;;;;;0.00;0.00;;;20.70;99.90;;;;;;4974751;28;20038;-74
2021/09/26 12:27:22;;;;;;;1.25;1.10;;;20.80;99.90;;;;;;4974668;28;20106;-74
2021/09/26 12:29:58;;;;;;;9.23;0.43;;;20.80;99.90;;;;;;4975138;28;20085;-75
2021/09/26 12:32:27;;;;;;;0.25;0.20;;;20.90;99.90;;;;;;4974970;28;20023;-75
2021/09/26 12:34:55;;;;;;;1.65;0.35;;;21.20;99.90;;;;;;4975996;28;20038;-75
2021/09/26 12:37:27;;;;;;;0.85;0.85;;;21.40;99.90;;;;;;4976096;28;20349;-75
2021/09/26 12:40:05;;;;;;;0.20;0.20;;;21.70;99.90;;;;;;4974858;28;20041;-75
2021/09/26 12:42:36;;;;;;;0.10;0.10;;;21.70;99.90;;;;;;4974927;28;20041;-75
2021/09/26 12:45:39;;;;;;;0.32;0.13;;;21.90;99.90;;;;;;4974828;28;20039;-75
2021/09/26 12:48:12;;;;;;;0.17;0.17;;;21.40;99.90;;;;;;4935184;29;20046;-75
2021/09/26 12:50:53;;;;;;;0.10;0.10;;;21.50;99.90;;;;;;4918276;29;20039;-76
2021/09/26 12:53:33;;;;;;;2.55;1.08;;;21.70;99.90;;;;;;4919186;29;20070;-75
2021/09/26 12:56:16;;;;;;;0.55;0.20;;;22.40;99.90;;;;;;4918704;29;20490;-75
2021/09/26 12:58:56;;;;;;;1.65;0.95;;;21.80;99.90;;;;;;4918883;29;20130;-75
2021/09/26 13:01:21;;;;;;;0.32;0.32;;;21.70;99.90;;;;;;4919064;29;20134;-75
2021/09/26 13:04:14;;;;;;;0.00;0.00;;;21.50;99.90;;;;;;4918902;29;20139;-75
2021/09/26 13:06:52;;;;;;;0.10;0.10;;;21.20;99.90;;;;;;4919101;29;20035;-75
2021/09/26 13:09:45;;;;;;;0.73;0.17;;;20.90;99.90;;;;;;4918797;29;20083;-75
2021/09/26 13:12:31;;;;;;;0.05;0.05;;;21.00;99.90;;;;;;4917279;29;20031;-75
2021/09/26 13:15:15;;;;;;;0.10;0.10;;;20.80;99.90;;;;;;4918269;28;20035;-75